createdAt,value
2023-03-05T00:04:34.913Z,84.25
2023-03-05T00:09:36.505Z,83.26
2023-03-05T00:14:38.263Z,83.85
2023-03-05T00:19:40.014Z,83.90
2023-03-05T00:24:41.766Z,83.93
2023-03-05T00:29:43.475Z,82.83
2023-03-05T00:34:45.187Z,82.78
2023-03-05T00:39:46.813Z,82.96
2023-03-05T00:44:48.405Z,83.61
2023-03-05T00:49:50.316Z,84.34
2023-03-05T00:54:51.957Z,84.42
2023-03-05T00:59:53.652Z,82.69
2023-03-05T01:04:55.707Z,82.12
2023-03-05T01:09:57.393Z,81.48
2023-03-05T01:14:59.144Z,81.24
2023-03-05T01:20:00.779Z,79.17
2023-03-05T01:25:02.582Z,80.51
2023-03-05T01:30:05.205Z,78.22
2023-03-05T01:35:08.478Z,77.56
2023-03-05T01:40:12.344Z,77.47
2023-03-05T01:45:17.155Z,75.67
2023-03-05T01:50:22.998Z,74.50
2023-03-05T01:55:26.780Z,74.64
2023-03-05T02:00:35.684Z,74.41
2023-03-05T02:05:41.102Z,74.47
2023-03-05T02:10:46.051Z,74.56
2023-03-05T02:15:49.865Z,74.68
2023-03-05T02:20:56.336Z,75.42
2023-03-05T02:25:58.086Z,76.67
2023-03-05T02:30:59.843Z,77.66
2023-03-05T02:36:01.503Z,77.45
2023-03-05T02:41:03.524Z,75.88
2023-03-05T02:46:05.848Z,76.37
2023-03-05T02:51:08.590Z,76.53
2023-03-05T02:56:11.016Z,76.03
2023-03-05T03:01:12.845Z,74.28
2023-03-05T03:06:14.607Z,74.60
2023-03-05T03:11:16.269Z,75.65
2023-03-05T03:16:18.124Z,74.64
2023-03-05T03:21:22.260Z,74.15
2023-03-05T03:26:24.040Z,74.80
2023-03-05T03:31:25.770Z,74.79
2023-03-05T03:36:27.371Z,74.13
2023-03-05T03:41:29.028Z,73.31
2023-03-05T03:46:31.086Z,74.25
2023-03-05T03:51:33.105Z,72.77
2023-03-05T03:56:34.717Z,72.58
2023-03-05T04:01:36.737Z,72.00
2023-03-05T04:06:38.974Z,72.59
2023-03-05T04:11:40.681Z,72.14
2023-03-05T04:16:42.352Z,71.41
2023-03-05T04:21:44.027Z,72.22
2023-03-05T04:26:45.688Z,71.17
2023-03-05T04:31:47.360Z,71.80
2023-03-05T04:36:49.051Z,73.59
2023-03-05T04:41:50.695Z,75.75
2023-03-05T04:46:52.684Z,76.38
2023-03-05T04:51:54.493Z,77.99
2023-03-05T04:56:56.092Z,79.91
2023-03-05T05:01:57.974Z,82.24
2023-03-05T05:06:59.706Z,83.48
2023-03-05T05:12:01.580Z,84.59
2023-03-05T05:17:05.187Z,83.99
2023-03-05T05:22:07.639Z,85.24
2023-03-05T05:27:09.328Z,84.85
2023-03-05T05:32:11.049Z,84.63
2023-03-05T05:37:12.850Z,83.56
2023-03-05T05:42:14.609Z,82.02
2023-03-05T05:47:18.098Z,80.46
2023-03-05T05:52:19.735Z,79.67
2023-03-05T05:57:21.436Z,79.91
2023-03-05T06:02:23.384Z,79.87
2023-03-05T06:07:25.948Z,80.49
2023-03-05T06:12:28.265Z,78.38
2023-03-05T06:17:31.043Z,78.89
2023-03-05T06:22:37.394Z,78.38
2023-03-05T06:27:39.384Z,77.61
2023-03-05T06:32:41.252Z,76.57
2023-03-05T06:37:43.208Z,76.95
2023-03-05T06:42:45.172Z,75.89
2023-03-05T06:47:46.948Z,75.77
2023-03-05T06:52:51.782Z,75.49
2023-03-05T06:57:53.568Z,79.42
2023-03-05T07:02:55.301Z,79.61
2023-03-05T07:07:57.042Z,82.08
2023-03-05T07:12:59.038Z,82.49
2023-03-05T07:18:01.185Z,84.38
2023-03-05T07:23:04.274Z,84.93
2023-03-05T07:28:07.130Z,84.10
2023-03-05T07:33:08.999Z,84.55
2023-03-05T07:38:10.801Z,83.49
2023-03-05T07:43:12.611Z,84.20
2023-03-05T07:48:17.510Z,85.60
2023-03-05T07:53:19.354Z,84.40
2023-03-05T07:58:21.131Z,87.14
2023-03-05T08:03:22.885Z,88.37
2023-03-05T08:08:24.618Z,89.46
2023-03-05T08:13:26.405Z,91.33
2023-03-05T08:18:28.595Z,91.96
2023-03-05T08:23:30.820Z,91.01
2023-03-05T08:28:34.389Z,90.76
2023-03-05T08:33:37.133Z,89.66
2023-03-05T08:38:39.599Z,88.58
2023-03-05T08:43:41.739Z,86.39
2023-03-05T08:48:43.919Z,84.86
2023-03-05T08:53:46.775Z,85.81
2023-03-05T08:58:48.661Z,89.77
2023-03-05T09:03:50.620Z,96.13
2023-03-05T09:08:52.760Z,97.28
2023-03-05T09:13:54.700Z,99.66
2023-03-05T09:18:56.719Z,99.14
2023-03-05T09:24:00.629Z,100.00
2023-03-05T09:29:02.578Z,100.00
2023-03-05T09:34:05.548Z,100.00
2023-03-05T09:39:07.407Z,100.00
2023-03-05T09:44:14.949Z,100.00
2023-03-05T09:50:01.448Z,98.10
2023-03-05T09:55:05.125Z,95.68
2023-03-05T10:00:21.142Z,93.41
2023-03-05T10:05:31.403Z,91.72
2023-03-05T10:10:40.946Z,86.06
2023-03-05T10:16:13.513Z,81.42
2023-03-05T10:21:45.478Z,79.38
2023-03-05T10:27:02.694Z,77.93
2023-03-05T10:32:20.632Z,73.38
2023-03-05T10:37:48.794Z,75.45
2023-03-05T10:43:02.246Z,71.02
2023-03-05T10:48:25.488Z,72.18
2023-03-05T10:53:34.087Z,76.05
2023-03-05T10:58:35.916Z,77.26
2023-03-05T11:03:59.360Z,79.61
2023-03-05T11:09:32.493Z,80.39
2023-03-05T11:14:38.671Z,81.72
2023-03-05T11:19:40.571Z,81.48
2023-03-05T11:24:43.453Z,82.26
2023-03-05T11:29:49.404Z,88.48
2023-03-05T11:34:51.483Z,89.11
2023-03-05T11:40:27.842Z,90.69
2023-03-05T11:45:31.937Z,87.92
2023-03-05T11:50:35.225Z,88.21
2023-03-05T11:55:45.295Z,88.74
2023-03-05T12:01:22.256Z,90.51
2023-03-05T12:06:36.120Z,90.30
2023-03-05T12:11:38.584Z,89.54
2023-03-05T12:16:56.832Z,88.89
2023-03-05T12:21:59.563Z,89.05
2023-03-05T12:27:03.976Z,87.32
2023-03-05T12:32:26.013Z,86.58
2023-03-05T12:37:28.017Z,84.49
2023-03-05T12:42:30.417Z,82.36
2023-03-05T12:47:32.577Z,83.14
2023-03-05T12:52:34.871Z,82.66
2023-03-05T12:57:37.708Z,86.70
2023-03-05T13:02:47.555Z,87.76
2023-03-05T13:07:51.191Z,88.35
2023-03-05T13:12:56.085Z,85.69
2023-03-05T13:18:02.280Z,86.21
2023-03-05T13:23:05.404Z,86.35
2023-03-05T13:28:13.958Z,86.61
2023-03-05T13:33:20.016Z,83.82
2023-03-05T13:38:45.331Z,84.25
2023-03-05T13:43:57.056Z,85.35
2023-03-05T13:49:24.162Z,86.51
2023-03-05T13:54:27.287Z,83.67
2023-03-05T13:59:31.858Z,83.25
2023-03-05T14:04:41.591Z,84.62
2023-03-05T14:09:47.788Z,81.49
2023-03-05T14:14:50.041Z,81.64
2023-03-05T14:19:52.460Z,87.22
2023-03-05T14:24:55.049Z,91.48
2023-03-05T14:29:57.931Z,93.19
2023-03-05T14:35:02.365Z,96.83
2023-03-05T14:40:22.411Z,96.66
2023-03-05T14:45:27.670Z,98.50
2023-03-05T14:50:39.224Z,99.79
2023-03-05T14:55:43.737Z,100.00
2023-03-05T15:00:46.129Z,100.00
2023-03-05T15:05:54.183Z,100.00
2023-03-05T15:10:56.925Z,100.00
2023-03-05T15:15:59.132Z,100.00
2023-03-05T15:21:02.443Z,98.49
2023-03-05T15:26:07.357Z,96.77
2023-03-05T15:31:09.784Z,96.06
2023-03-05T15:36:11.585Z,95.52
2023-03-05T15:41:13.535Z,96.06
2023-03-05T15:46:15.269Z,95.24
2023-03-05T15:51:17.774Z,92.40
2023-03-05T15:56:19.797Z,93.77
2023-03-05T16:01:23.452Z,92.46
2023-03-05T16:06:26.018Z,94.38
2023-03-05T16:11:28.664Z,93.52
2023-03-05T16:16:32.276Z,94.40
2023-03-05T16:21:34.213Z,92.21
2023-03-05T16:26:38.036Z,91.86
2023-03-05T16:31:41.479Z,93.40
2023-03-05T16:36:52.660Z,91.07
2023-03-05T16:41:54.489Z,91.79
2023-03-05T16:46:56.666Z,91.66
2023-03-05T16:52:01.323Z,92.53
2023-03-05T16:57:09.021Z,90.09
2023-03-05T17:02:13.273Z,89.75
2023-03-05T17:07:15.080Z,88.24
2023-03-05T17:12:16.950Z,84.70
2023-03-05T17:17:18.801Z,82.69
2023-03-05T17:22:22.313Z,84.31
2023-03-05T17:27:23.984Z,86.03
2023-03-05T17:32:26.111Z,83.75
2023-03-05T17:37:28.034Z,83.81
2023-03-05T17:42:29.730Z,84.86
2023-03-05T17:47:34.817Z,86.94
2023-03-05T17:52:41.184Z,89.47
2023-03-05T17:57:47.430Z,88.00
2023-03-05T18:02:49.661Z,88.45
2023-03-05T18:07:52.164Z,87.80
2023-03-05T18:12:54.287Z,87.83
2023-03-05T18:17:56.444Z,89.94
2023-03-05T18:23:00.343Z,87.88
2023-03-05T18:28:07.558Z,88.64
2023-03-05T18:33:13.393Z,90.33
2023-03-05T18:38:15.424Z,93.13
2023-03-05T18:43:20.520Z,90.77
2023-03-05T18:48:22.950Z,94.15
2023-03-05T18:53:24.737Z,97.02
2023-03-05T18:58:26.416Z,98.46
2023-03-05T19:03:28.077Z,98.42
2023-03-05T19:08:29.692Z,100.00
2023-03-05T19:13:35.084Z,99.67
2023-03-05T19:18:43.835Z,100.00
2023-03-05T19:23:49.689Z,100.00
2023-03-05T19:28:51.558Z,98.14
2023-03-05T19:33:54.527Z,98.32
2023-03-05T19:38:56.296Z,97.65
2023-03-05T19:43:58.088Z,98.80
2023-03-05T19:48:59.986Z,98.48
2023-03-05T19:54:04.057Z,98.01
2023-03-05T19:59:06.378Z,98.91
2023-03-05T20:04:08.143Z,99.80
2023-03-05T20:09:10.638Z,99.27
2023-03-05T20:14:19.458Z,97.27
2023-03-05T20:19:21.909Z,98.31
2023-03-05T20:24:23.588Z,99.55
2023-03-05T20:29:25.500Z,97.57
2023-03-05T20:34:27.247Z,98.67
2023-03-05T20:39:28.963Z,99.24
2023-03-05T20:44:30.652Z,99.45
2023-03-05T20:49:32.330Z,100.00
2023-03-05T20:54:34.022Z,100.00
2023-03-05T20:59:36.807Z,98.19
2023-03-05T21:04:38.469Z,98.95
2023-03-05T21:09:40.694Z,99.86
2023-03-05T21:14:42.334Z,98.12
2023-03-05T21:19:44.081Z,97.54
2023-03-05T21:25:06.028Z,94.99
2023-03-05T21:30:09.656Z,95.85
2023-03-05T21:35:22.727Z,95.98
2023-03-05T21:40:25.140Z,92.67
2023-03-05T21:45:28.794Z,91.80
2023-03-05T21:50:33.334Z,92.53
2023-03-05T21:55:46.316Z,92.53
2023-03-05T22:00:48.068Z,91.84
2023-03-05T22:05:49.751Z,91.83
2023-03-05T22:10:52.117Z,91.40
2023-03-05T22:15:55.834Z,89.94
2023-03-05T22:20:59.483Z,90.23
2023-03-05T22:26:04.834Z,90.33
2023-03-05T22:31:06.567Z,89.86
2023-03-05T22:36:10.771Z,90.13
2023-03-05T22:41:14.886Z,89.49
2023-03-05T22:46:22.534Z,90.74
2023-03-05T22:51:24.708Z,89.97
2023-03-05T22:56:26.525Z,88.63
2023-03-05T23:01:28.174Z,89.93
2023-03-05T23:06:29.846Z,88.45
2023-03-05T23:11:31.540Z,89.09
2023-03-05T23:16:33.154Z,89.02
2023-03-05T23:21:34.809Z,88.54
2023-03-05T23:26:36.481Z,88.31
2023-03-05T23:31:38.200Z,88.70
2023-03-05T23:36:39.857Z,87.95
2023-03-05T23:41:41.463Z,88.15
2023-03-05T23:46:43.153Z,88.09
2023-03-05T23:51:44.847Z,88.42
2023-03-05T23:56:46.539Z,88.35
